Time;durP1;ratioP1;P1;durP2;ratioP2;P2;SDS_P1;SDS_P2;PMS_P1;PMS_P2;Temp;Humidity;BMP_temperature;BMP_pressure;BME280_temperature;BME280_humidity;BME280_pressure;Samples;Min_cycle;Max_cycle;Signal;HPM_P1;HPM_P2
2022/12/21 00:01:27;;;;;;;13.68;6.72;;;;;;;;;;5034914;28;20025;-80
2022/12/21 00:03:56;;;;;;;11.85;6.78;;;;;;;;;;5054447;28;20131;-81
2022/12/21 00:06:22;;;;;;;11.77;6.97;;;;;;;;;;5032271;28;20396;-80
2022/12/21 00:09:13;;;;;;;12.15;7.07;;;;;;;;;;5036077;28;20048;-81
2022/12/21 00:11:38;;;;;;;10.02;6.28;;;;;;;;;;5050347;28;20033;-80
2022/12/21 00:14:04;;;;;;;12.98;6.70;;;;;;;;;;5034895;28;20472;-80
2022/12/21 00:16:30;;;;;;;10.82;6.68;;;;;;;;;;5032605;28;20061;-81
2022/12/21 00:18:55;;;;;;;11.38;6.65;;;;;;;;;;5049799;28;20078;-81
2022/12/21 00:21:22;;;;;;;11.98;6.70;;;;;;;;;;5044603;28;20120;-80
2022/12/21 00:23:47;;;;;;;;;;;;;;;;;;5034489;28;20029;-81
2022/12/21 00:26:13;;;;;;;13.80;6.75;;;;;;;;;;5050705;28;19962;-81
2022/12/21 00:28:39;;;;;;;11.45;6.70;;;;;;;;;;5014175;28;20436;-81
2022/12/21 00:31:05;;;;;;;13.20;6.90;;;;;;;;;;5032836;28;20035;-81
2022/12/21 00:33:30;;;;;;;13.00;6.85;;;;;;;;;;5050035;28;20423;-81
2022/12/21 00:35:55;;;;;;;11.32;6.68;;;;;;;;;;5050639;28;20488;-81
2022/12/21 00:38:21;;;;;;;9.65;5.90;;;;;;;;;;5015977;28;20040;-81
2022/12/21 00:40:47;;;;;;;11.05;6.10;;;;;;;;;;5032406;28;20056;-81
2022/12/21 00:43:12;;;;;;;10.13;6.20;;;;;;;;;;5017198;28;20045;-80
2022/12/21 00:45:38;;;;;;;11.10;5.72;;;;;;;;;;5017391;28;20080;-81
2022/12/21 00:48:04;;;;;;;10.55;6.10;;;;;;;;;;5016821;28;20029;-80
2022/12/21 00:50:31;;;;;;;13.00;6.47;;;;;;;;;;5050013;28;20064;-80
2022/12/21 00:52:56;;;;;;;10.55;6.70;;;;;;;;;;5032139;28;20033;-80
2022/12/21 00:55:22;;;;;;;9.95;5.95;;;;;;;;;;5002930;28;20041;-80
2022/12/21 00:57:47;;;;;;;10.63;6.18;;;;;;;;;;5055523;28;20041;-81
2022/12/21 01:00:13;;;;;;;8.55;5.53;;;;;;;;;;5019935;28;20025;-80
2022/12/21 01:02:38;;;;;;;10.00;5.53;;;;;;;;;;5035563;28;20049;-80
2022/12/21 01:05:04;;;;;;;11.60;6.38;;;;;;;;;;5035503;28;20119;-80
2022/12/21 01:07:29;;;;;;;13.60;6.40;;;;;;;;;;5035208;28;20037;-80
2022/12/21 01:09:55;;;;;;;10.60;6.15;;;;;;;;;;5041588;28;20064;-81
2022/12/21 01:12:20;;;;;;;10.00;6.03;;;;;;;;;;5063946;28;20052;-81
2022/12/21 01:14:46;;;;;;;11.00;6.72;;;;;;;;;;5040518;28;20487;-80
2022/12/21 01:17:11;;;;;;;10.10;6.18;;;;;;;;;;5052906;28;20045;-81
2022/12/21 01:19:37;;;;;;;9.95;5.97;;;;;;;;;;5053891;28;20052;-81
2022/12/21 01:22:02;;;;;;;9.65;5.60;;;;;;;;;;5016937;28;20493;-81
2022/12/21 01:24:27;;;;;;;10.30;6.15;;;;;;;;;;5031335;28;20505;-81
2022/12/21 01:26:53;;;;;;;10.90;6.15;;;;;;;;;;5018874;28;20045;-81
2022/12/21 01:29:18;;;;;;;11.07;6.25;;;;;;;;;;5036565;28;20029;-81
2022/12/21 01:31:44;;;;;;;11.65;6.15;;;;;;;;;;5035471;28;20461;-81
2022/12/21 01:34:10;;;;;;;11.45;6.32;;;;;;;;;;5053885;28;20047;-81
2022/12/21 01:36:36;;;;;;;11.18;6.13;;;;;;;;;;5043600;28;20033;-81
2022/12/21 01:39:02;;;;;;;10.65;6.30;;;;;;;;;;5019371;28;20499;-81
2022/12/21 01:41:28;;;;;;;9.70;6.13;;;;;;;;;;5056768;28;20032;-82
2022/12/21 01:44:00;;;;;;;8.43;5.60;;;;;;;;;;5009213;28;20033;-81
2022/12/21 01:46:30;;;;;;;10.15;6.03;;;;;;;;;;5051636;28;20033;-81
2022/12/21 01:49:08;;;;;;;11.52;6.45;;;;;;;;;;5036977;28;20459;-81
2022/12/21 01:51:33;;;;;;;10.50;5.70;;;;;;;;;;5054171;28;20036;-81
2022/12/21 01:54:01;;;;;;;10.52;5.90;;;;;;;;;;5064320;28;20029;-81
2022/12/21 01:56:29;;;;;;;12.02;6.32;;;;;;;;;;5035415;28;20045;-81
2022/12/21 01:58:55;;;;;;;9.27;6.00;;;;;;;;;;5035862;28;20025;-81
2022/12/21 02:01:21;;;;;;;9.32;5.68;;;;;;;;;;5034505;28;20169;-81
2022/12/21 02:03:47;;;;;;;10.02;6.03;;;;;;;;;;5045915;28;20078;-81
2022/12/21 02:06:16;;;;;;;10.05;6.35;;;;;;;;;;5053316;28;20530;-81
2022/12/21 02:08:42;;;;;;;10.70;6.18;;;;;;;;;;5018914;28;20025;-81
2022/12/21 02:11:07;;;;;;;11.40;6.30;;;;;;;;;;5035856;28;20047;-80
2022/12/21 02:13:33;;;;;;;11.52;7.25;;;;;;;;;;5055091;28;20048;-81
2022/12/21 02:15:58;;;;;;;10.25;5.45;;;;;;;;;;5021847;28;20064;-81
2022/12/21 02:18:35;;;;;;;9.77;5.28;;;;;;;;;;5012096;28;20038;-80
2022/12/21 02:21:00;;;;;;;;;;;;;;;;;;5012490;28;20033;-81
2022/12/21 02:23:30;;;;;;;9.57;5.57;;;;;;;;;;5012971;28;19909;-80
2022/12/21 02:26:08;;;;;;;10.77;6.28;;;;;;;;;;4995481;28;20034;-81
2022/12/21 02:28:52;;;;;;;9.85;6.20;;;;;;;;;;5011441;28;20125;-80
2022/12/21 02:31:22;;;;;;;11.50;6.93;;;;;;;;;;4994952;28;20042;-81
2022/12/21 02:33:50;;;;;;;8.88;5.95;;;;;;;;;;5012325;28;20057;-80
2022/12/21 02:36:20;;;;;;;12.43;6.55;;;;;;;;;;5011574;28;20034;-81
2022/12/21 02:38:59;;;;;;;9.75;6.05;;;;;;;;;;5011051;28;20046;-80
2022/12/21 02:41:31;;;;;;;11.10;5.85;;;;;;;;;;4995148;28;20037;-80
2022/12/21 02:44:15;;;;;;;11.43;6.70;;;;;;;;;;5011038;28;20093;-82
2022/12/21 02:46:41;;;;;;;10.35;5.70;;;;;;;;;;5017508;28;20029;-79
2022/12/21 02:49:08;;;;;;;10.07;6.43;;;;;;;;;;5007827;28;20091;-80
2022/12/21 02:51:36;;;;;;;10.48;5.90;;;;;;;;;;5001033;28;20493;-80
2022/12/21 02:54:01;;;;;;;10.98;6.15;;;;;;;;;;5009380;28;20180;-81
2022/12/21 02:56:28;;;;;;;13.10;6.43;;;;;;;;;;4991510;28;20034;-80
2022/12/21 02:58:55;;;;;;;9.90;5.97;;;;;;;;;;5005250;28;20148;-81
2022/12/21 03:01:24;;;;;;;11.75;6.15;;;;;;;;;;5010636;28;20479;-80
2022/12/21 03:04:12;;;;;;;11.75;5.60;;;;;;;;;;5011273;28;20045;-81
2022/12/21 03:06:57;;;;;;;9.52;6.00;;;;;;;;;;5003336;28;20045;-80
2022/12/21 03:09:32;;;;;;;13.30;6.45;;;;;;;;;;5010165;28;20026;-81
2022/12/21 03:12:13;;;;;;;11.77;5.68;;;;;;;;;;5011729;28;20463;-80
2022/12/21 03:14:38;;;;;;;12.35;6.18;;;;;;;;;;5003651;28;20171;-81
2022/12/21 03:17:11;;;;;;;11.05;6.57;;;;;;;;;;5009049;28;20132;-81
2022/12/21 03:19:36;;;;;;;12.50;6.63;;;;;;;;;;5010710;28;20038;-81
2022/12/21 03:22:06;;;;;;;12.82;6.50;;;;;;;;;;5016925;28;20376;-81
2022/12/21 03:24:39;;;;;;;12.30;6.10;;;;;;;;;;5017393;28;20045;-81
2022/12/21 03:27:10;;;;;;;12.63;6.80;;;;;;;;;;5000553;28;20049;-81
2022/12/21 03:29:37;;;;;;;13.70;7.68;;;;;;;;;;5014356;28;20092;-81
2022/12/21 03:32:07;;;;;;;14.30;7.43;;;;;;;;;;5003257;28;20404;-81
2022/12/21 03:34:34;;;;;;;13.30;7.80;;;;;;;;;;5017096;28;20570;-81
2022/12/21 03:37:19;;;;;;;12.25;6.93;;;;;;;;;;4996704;28;20061;-81
2022/12/21 03:39:46;;;;;;;12.73;7.40;;;;;;;;;;5017556;28;20397;-82
2022/12/21 03:42:16;;;;;;;15.27;7.55;;;;;;;;;;5013881;28;20080;-82
2022/12/21 03:44:43;;;;;;;14.25;7.57;;;;;;;;;;5001379;28;20457;-81
2022/12/21 03:47:10;;;;;;;13.15;8.10;;;;;;;;;;5009821;28;20092;-82
2022/12/21 03:49:40;;;;;;;13.25;8.00;;;;;;;;;;5010144;28;20030;-82
2022/12/21 03:52:15;;;;;;;14.68;8.45;;;;;;;;;;5010476;28;20053;-81
2022/12/21 03:54:45;;;;;;;15.40;8.52;;;;;;;;;;5010203;28;20038;-81
2022/12/21 03:57:11;;;;;;;13.23;7.90;;;;;;;;;;5010178;28;20037;-81
2022/12/21 03:59:37;;;;;;;14.68;8.40;;;;;;;;;;4993649;28;20029;-81
2022/12/21 04:02:02;;;;;;;;;;;;;;;;;;5010500;28;20025;-80
2022/12/21 04:04:29;;;;;;;15.13;8.50;;;;;;;;;;5011179;28;20440;-80
2022/12/21 04:06:56;;;;;;;13.07;8.27;;;;;;;;;;4994757;28;20021;-80
2022/12/21 04:09:21;;;;;;;10.93;6.90;;;;;;;;;;5018457;28;20048;-81
2022/12/21 04:14:31;;;;;;;12.70;8.20;;;;;;;;;;5012406;28;20069;-82
2022/12/21 04:16:56;;;;;;;13.18;7.47;;;;;;;;;;4993385;28;20058;-81
2022/12/21 04:22:06;;;;;;;13.60;7.43;;;;;;;;;;5009810;28;20036;-81
2022/12/21 04:29:59;;;;;;;13.07;6.60;;;;;;;;;;5016063;28;20040;-82
2022/12/21 04:32:25;;;;;;;11.05;6.72;;;;;;;;;;5017816;28;20021;-81
2022/12/21 04:34:50;;;;;;;10.55;6.70;;;;;;;;;;5014787;28;20037;-82
2022/12/21 04:37:31;;;;;;;11.68;7.50;;;;;;;;;;5014700;28;20485;-82
2022/12/21 04:39:57;;;;;;;10.57;6.93;;;;;;;;;;5023223;28;20048;-82
2022/12/21 04:42:22;;;;;;;9.60;6.53;;;;;;;;;;5029242;28;20022;-82
2022/12/21 04:44:48;;;;;;;10.75;6.28;;;;;;;;;;5025879;28;20033;-83
2022/12/21 04:47:13;;;;;;;10.85;6.50;;;;;;;;;;5028477;28;20492;-80
2022/12/21 04:49:39;;;;;;;12.15;7.60;;;;;;;;;;5018191;28;20038;-81
2022/12/21 04:52:04;;;;;;;11.63;6.22;;;;;;;;;;5024107;28;20057;-81
2022/12/21 04:54:30;;;;;;;12.02;7.20;;;;;;;;;;5019669;28;20041;-83
2022/12/21 04:56:55;;;;;;;13.00;7.75;;;;;;;;;;5024309;28;20056;-82
2022/12/21 04:59:20;;;;;;;13.23;7.43;;;;;;;;;;5022041;28;20030;-80
2022/12/21 05:01:46;;;;;;;11.52;7.13;;;;;;;;;;5023463;28;20060;-82
2022/12/21 05:04:11;;;;;;;11.35;7.80;;;;;;;;;;5020926;28;20505;-81
2022/12/21 05:06:37;;;;;;;12.27;8.20;;;;;;;;;;5017798;28;20036;-81
2022/12/21 05:09:02;;;;;;;13.13;7.93;;;;;;;;;;5022537;28;20053;-81
2022/12/21 05:11:28;;;;;;;13.90;8.80;;;;;;;;;;5025835;28;20033;-81
2022/12/21 05:13:54;;;;;;;12.65;7.25;;;;;;;;;;5026350;28;20084;-80
2022/12/21 05:16:22;;;;;;;12.65;7.63;;;;;;;;;;5052794;28;20052;-80
2022/12/21 05:18:50;;;;;;;10.90;6.95;;;;;;;;;;5059186;28;20037;-79
2022/12/21 05:21:15;;;;;;;12.63;7.65;;;;;;;;;;5041694;28;20112;-81
2022/12/21 05:23:41;;;;;;;12.57;8.15;;;;;;;;;;5060535;28;20561;-80
2022/12/21 05:26:07;;;;;;;14.23;8.95;;;;;;;;;;5048237;28;20029;-82
2022/12/21 05:28:32;;;;;;;13.07;8.48;;;;;;;;;;5062129;28;20450;-79
2022/12/21 05:30:58;;;;;;;14.50;8.82;;;;;;;;;;5066103;28;20056;-81
2022/12/21 05:33:23;;;;;;;12.65;8.18;;;;;;;;;;5062427;28;20028;-80
2022/12/21 05:35:49;;;;;;;13.32;8.38;;;;;;;;;;5066233;28;20090;-80
2022/12/21 05:38:14;;;;;;;13.55;8.13;;;;;;;;;;5063972;28;20484;-81
2022/12/21 05:40:40;;;;;;;15.02;8.95;;;;;;;;;;5047899;28;20029;-80
2022/12/21 05:43:05;;;;;;;15.43;8.85;;;;;;;;;;5030987;28;20157;-80
2022/12/21 05:45:31;;;;;;;14.55;8.98;;;;;;;;;;5066130;28;20400;-81
2022/12/21 05:47:56;;;;;;;16.05;9.68;;;;;;;;;;5048966;28;20035;-81
2022/12/21 05:50:22;;;;;;;13.77;8.50;;;;;;;;;;5052436;28;20037;-82
2022/12/21 05:52:51;;;;;;;13.07;7.75;;;;;;;;;;5067197;28;20117;-81
2022/12/21 05:55:17;;;;;;;12.13;7.75;;;;;;;;;;5066981;28;20561;-81
2022/12/21 05:57:42;;;;;;;15.05;9.23;;;;;;;;;;5067117;28;20158;-81
2022/12/21 06:00:08;;;;;;;13.10;8.30;;;;;;;;;;5067291;28;20047;-82
2022/12/21 06:02:37;;;;;;;15.23;8.55;;;;;;;;;;5066302;28;20025;-82
2022/12/21 06:05:03;;;;;;;12.43;8.18;;;;;;;;;;5068688;28;20032;-82
2022/12/21 06:07:29;;;;;;;;;;;;;;;;;;5068867;28;20524;-83
2022/12/21 06:09:54;;;;;;;15.15;9.73;;;;;;;;;;5068682;28;19966;-81
2022/12/21 06:12:20;;;;;;;11.70;7.45;;;;;;;;;;5068804;28;20033;-81
2022/12/21 06:14:45;;;;;;;13.00;8.20;;;;;;;;;;5067757;28;20047;-80
2022/12/21 06:17:11;;;;;;;13.15;8.43;;;;;;;;;;5033955;28;20037;-79
2022/12/21 06:19:36;;;;;;;12.32;7.35;;;;;;;;;;5017344;28;20087;-80
2022/12/21 06:22:02;;;;;;;11.45;7.35;;;;;;;;;;5051599;28;20025;-82
2022/12/21 06:24:27;;;;;;;12.77;7.63;;;;;;;;;;5034004;28;20040;-78
2022/12/21 06:26:53;;;;;;;12.98;7.40;;;;;;;;;;5034107;28;20029;-81
2022/12/21 06:29:18;;;;;;;12.20;8.20;;;;;;;;;;5051970;28;20395;-81
2022/12/21 06:31:44;;;;;;;12.70;7.55;;;;;;;;;;5057557;28;20399;-80
2022/12/21 06:34:10;;;;;;;12.63;8.02;;;;;;;;;;5055043;28;20036;-81
2022/12/21 06:36:35;;;;;;;18.20;9.77;;;;;;;;;;5051795;28;20025;-80
2022/12/21 06:39:01;;;;;;;12.65;8.18;;;;;;;;;;5052551;28;20081;-82
2022/12/21 06:41:26;;;;;;;17.02;8.57;;;;;;;;;;5052434;28;20399;-80
2022/12/21 06:43:51;;;;;;;16.10;9.27;;;;;;;;;;5053086;28;20487;-80
2022/12/21 06:46:17;;;;;;;15.45;9.70;;;;;;;;;;5058051;28;20029;-80
2022/12/21 06:48:43;;;;;;;17.08;10.20;;;;;;;;;;5039074;28;20036;-80
2022/12/21 06:51:12;;;;;;;16.80;9.55;;;;;;;;;;5017953;28;20548;-81
2022/12/21 06:53:38;;;;;;;16.88;9.85;;;;;;;;;;5052265;28;20045;-80
2022/12/21 06:56:11;;;;;;;14.57;8.63;;;;;;;;;;5052262;28;20411;-80
2022/12/21 06:58:36;;;;;;;14.07;8.95;;;;;;;;;;5041637;28;20033;-80
2022/12/21 07:01:03;;;;;;;15.75;8.80;;;;;;;;;;5059996;28;20078;-81
2022/12/21 07:03:28;;;;;;;13.27;8.25;;;;;;;;;;5060633;28;20492;-81
2022/12/21 07:05:53;;;;;;;14.00;8.73;;;;;;;;;;5060076;28;20035;-81
2022/12/21 07:08:19;;;;;;;13.85;8.32;;;;;;;;;;5065949;28;20071;-81
2022/12/21 07:10:44;;;;;;;17.17;9.70;;;;;;;;;;5067399;28;20063;-81
2022/12/21 07:13:10;;;;;;;15.85;9.20;;;;;;;;;;5069528;28;20025;-81
2022/12/21 07:15:36;;;;;;;16.85;9.63;;;;;;;;;;5061954;28;20057;-82
2022/12/21 07:18:02;;;;;;;18.35;9.70;;;;;;;;;;5033478;28;20511;-81
2022/12/21 07:20:27;;;;;;;16.58;9.65;;;;;;;;;;5033754;28;20044;-81
2022/12/21 07:22:53;;;;;;;17.67;9.70;;;;;;;;;;5051096;28;20075;-80
2022/12/21 07:25:18;;;;;;;20.05;9.95;;;;;;;;;;5051821;28;20036;-81
2022/12/21 07:27:44;;;;;;;17.70;10.10;;;;;;;;;;5051321;28;20037;-82
2022/12/21 07:30:09;;;;;;;17.88;9.63;;;;;;;;;;5035851;28;20059;-80
2022/12/21 07:32:35;;;;;;;17.63;9.05;;;;;;;;;;5051799;28;20442;-81
2022/12/21 07:35:00;;;;;;;16.35;9.02;;;;;;;;;;5041368;28;20062;-81
2022/12/21 07:37:26;;;;;;;14.82;8.93;;;;;;;;;;5038033;28;20043;-81
2022/12/21 07:39:51;;;;;;;15.82;8.77;;;;;;;;;;5060023;28;20037;-81
2022/12/21 07:42:17;;;;;;;13.52;8.82;;;;;;;;;;5055500;28;20563;-81
2022/12/21 07:44:57;;;;;;;15.45;8.77;;;;;;;;;;5025708;28;20036;-81
2022/12/21 07:47:35;;;;;;;13.80;8.65;;;;;;;;;;5025108;28;20033;-81
2022/12/21 07:50:01;;;;;;;14.18;8.25;;;;;;;;;;5056641;28;20040;-81
2022/12/21 07:52:27;;;;;;;15.82;9.40;;;;;;;;;;5060152;28;20021;-81
2022/12/21 07:54:52;;;;;;;15.10;8.38;;;;;;;;;;5058845;28;20090;-81
2022/12/21 07:57:18;;;;;;;18.35;9.10;;;;;;;;;;5066490;28;20032;-81
2022/12/21 07:59:43;;;;;;;15.30;9.10;;;;;;;;;;5062657;28;20036;-81
2022/12/21 08:02:09;;;;;;;17.15;9.90;;;;;;;;;;5044266;28;20498;-80
2022/12/21 08:04:34;;;;;;;17.75;10.25;;;;;;;;;;5043445;28;20040;-82
2022/12/21 08:07:00;;;;;;;18.42;10.48;;;;;;;;;;5045640;28;20510;-82
2022/12/21 08:09:25;;;;;;;19.10;9.60;;;;;;;;;;5066785;28;20028;-81
2022/12/21 08:11:50;;;;;;;15.95;9.48;;;;;;;;;;5066274;28;20029;-81
2022/12/21 08:14:16;;;;;;;14.75;9.13;;;;;;;;;;5063559;28;20428;-82
2022/12/21 08:16:41;;;;;;;21.02;10.00;;;;;;;;;;5021196;28;20452;-81
2022/12/21 08:19:07;;;;;;;17.88;10.20;;;;;;;;;;5054614;28;20040;-81
2022/12/21 08:21:32;;;;;;;18.48;10.13;;;;;;;;;;5055173;28;20024;-81
2022/12/21 08:23:58;;;;;;;17.42;9.50;;;;;;;;;;5038148;28;20038;-80
2022/12/21 08:26:23;;;;;;;16.85;10.25;;;;;;;;;;5039087;28;20032;-80
2022/12/21 08:28:49;;;;;;;14.13;9.18;;;;;;;;;;5054497;28;20100;-81
2022/12/21 08:31:15;;;;;;;17.73;9.07;;;;;;;;;;5055127;28;20029;-80
2022/12/21 08:33:42;;;;;;;16.98;8.98;;;;;;;;;;5054870;28;20095;-81
2022/12/21 08:36:08;;;;;;;16.52;9.43;;;;;;;;;;5054746;28;20029;-81
2022/12/21 08:38:33;;;;;;;16.17;8.93;;;;;;;;;;5037257;28;20132;-80
2022/12/21 08:41:02;;;;;;;18.25;10.18;;;;;;;;;;5038019;28;20120;-81
2022/12/21 08:43:28;;;;;;;21.38;11.93;;;;;;;;;;5020949;28;20032;-81
2022/12/21 08:45:53;;;;;;;21.45;11.15;;;;;;;;;;5054448;28;20025;-82
2022/12/21 08:48:19;;;;;;;21.90;11.60;;;;;;;;;;5055347;28;20025;-81
2022/12/21 08:50:51;;;;;;;21.40;11.43;;;;;;;;;;5038711;28;20039;-81
2022/12/21 08:53:16;;;;;;;23.63;13.45;;;;;;;;;;5021277;28;20036;-80
2022/12/21 08:55:41;;;;;;;26.90;12.25;;;;;;;;;;5056871;28;20388;-82
2022/12/21 08:58:07;;;;;;;19.23;10.43;;;;;;;;;;5038170;28;20396;-81
2022/12/21 09:00:32;;;;;;;17.95;10.10;;;;;;;;;;5056558;28;20515;-81
2022/12/21 09:02:58;;;;;;;18.05;10.50;;;;;;;;;;5055721;28;20078;-83
2022/12/21 09:05:23;;;;;;;17.98;9.27;;;;;;;;;;5056960;28;20013;-82
2022/12/21 09:07:49;;;;;;;18.80;9.95;;;;;;;;;;5055612;28;20496;-81
2022/12/21 09:10:14;;;;;;;16.77;8.98;;;;;;;;;;5057449;28;20040;-82
2022/12/21 09:12:40;;;;;;;16.80;9.75;;;;;;;;;;5017760;28;20040;-81
2022/12/21 09:15:05;;;;;;;16.35;9.75;;;;;;;;;;5053855;28;20064;-81
2022/12/21 09:17:31;;;;;;;17.52;9.10;;;;;;;;;;5036938;28;20040;-81
2022/12/21 09:19:56;;;;;;;15.18;8.27;;;;;;;;;;5037275;28;20403;-80
2022/12/21 09:22:23;;;;;;;16.17;8.80;;;;;;;;;;5044819;28;20029;-82
2022/12/21 09:24:48;;;;;;;;;;;;;;;;;;5059252;28;20020;-82
2022/12/21 09:27:14;;;;;;;13.73;7.82;;;;;;;;;;5045712;28;20422;-81
2022/12/21 09:29:39;;;;;;;14.63;8.50;;;;;;;;;;5066389;28;20036;-80
2022/12/21 09:32:05;;;;;;;13.80;8.10;;;;;;;;;;5058104;28;20037;-81
2022/12/21 09:34:30;;;;;;;17.23;8.48;;;;;;;;;;5062875;28;20032;-84
2022/12/21 09:36:56;;;;;;;16.70;8.05;;;;;;;;;;5057744;28;20045;-81
2022/12/21 09:39:22;;;;;;;14.38;8.02;;;;;;;;;;5063621;28;20043;-82
2022/12/21 09:41:50;;;;;;;16.52;8.18;;;;;;;;;;5065092;28;20024;-82
2022/12/21 09:44:25;;;;;;;15.32;8.30;;;;;;;;;;5053348;28;20025;-80
2022/12/21 09:46:51;;;;;;;14.85;7.68;;;;;;;;;;5052795;28;20029;-81
2022/12/21 09:49:17;;;;;;;13.73;8.02;;;;;;;;;;5018658;28;20128;-81
2022/12/21 09:51:45;;;;;;;15.75;7.95;;;;;;;;;;5053007;28;20033;-81
2022/12/21 09:54:12;;;;;;;14.65;7.90;;;;;;;;;;5034881;28;20413;-82
2022/12/21 09:56:42;;;;;;;15.38;8.40;;;;;;;;;;5018130;28;20613;-81
2022/12/21 09:59:13;;;;;;;16.08;8.00;;;;;;;;;;5041913;28;20044;-82
2022/12/21 10:01:42;;;;;;;13.02;7.43;;;;;;;;;;5035294;28;20032;-81
2022/12/21 10:04:10;;;;;;;14.95;7.13;;;;;;;;;;5034945;28;20394;-81
2022/12/21 10:06:48;;;;;;;14.63;8.02;;;;;;;;;;5063284;28;20028;-82
2022/12/21 10:09:13;;;;;;;14.73;7.97;;;;;;;;;;5036866;28;20071;-81
2022/12/21 10:11:48;;;;;;;13.13;7.22;;;;;;;;;;5060198;28;20488;-82
2022/12/21 10:14:38;;;;;;;18.08;7.70;;;;;;;;;;5052054;28;20075;-81
2022/12/21 10:17:14;;;;;;;16.38;7.50;;;;;;;;;;4991197;28;20069;-81
2022/12/21 10:19:40;;;;;;;12.68;7.45;;;;;;;;;;5011278;28;20064;-81
2022/12/21 10:22:07;;;;;;;15.38;8.68;;;;;;;;;;5017422;28;20519;-82
2022/12/21 10:24:36;;;;;;;13.63;7.88;;;;;;;;;;4998367;28;20068;-81
2022/12/21 10:27:10;;;;;;;13.57;7.55;;;;;;;;;;5013802;28;20029;-81
2022/12/21 10:29:35;;;;;;;12.57;6.95;;;;;;;;;;5015554;28;20043;-82
2022/12/21 10:32:01;;;;;;;14.50;7.93;;;;;;;;;;5015899;28;20033;-80
2022/12/21 10:34:36;;;;;;;13.50;7.25;;;;;;;;;;5016045;28;20500;-82
2022/12/21 10:37:13;;;;;;;12.35;7.38;;;;;;;;;;5003328;28;20464;-82
2022/12/21 10:39:39;;;;;;;15.15;8.18;;;;;;;;;;5020786;28;20191;-81
2022/12/21 10:42:06;;;;;;;14.77;8.23;;;;;;;;;;5016417;28;20517;-82
2022/12/21 10:44:33;;;;;;;12.60;7.80;;;;;;;;;;5021670;28;20038;-81
2022/12/21 10:46:58;;;;;;;13.45;6.78;;;;;;;;;;5017344;28;20540;-80
2022/12/21 10:49:25;;;;;;;13.52;6.82;;;;;;;;;;5021176;28;20116;-80
2022/12/21 10:51:51;;;;;;;13.55;7.13;;;;;;;;;;5018834;28;20180;-82
2022/12/21 10:54:23;;;;;;;14.88;7.57;;;;;;;;;;5021834;28;20112;-81
2022/12/21 10:56:49;;;;;;;14.20;7.97;;;;;;;;;;5011362;28;20432;-80
2022/12/21 10:59:15;;;;;;;14.80;7.82;;;;;;;;;;5022960;28;20132;-82
2022/12/21 11:01:41;;;;;;;14.75;7.82;;;;;;;;;;5001406;28;20141;-81
2022/12/21 11:04:12;;;;;;;19.17;8.55;;;;;;;;;;5022650;28;20108;-82
2022/12/21 11:06:37;;;;;;;17.35;8.60;;;;;;;;;;5011951;28;20030;-81
2022/12/21 11:09:07;;;;;;;16.35;8.55;;;;;;;;;;5026855;28;20032;-82
2022/12/21 11:11:37;;;;;;;16.13;8.57;;;;;;;;;;5021515;28;20029;-83
2022/12/21 11:14:12;;;;;;;14.90;7.75;;;;;;;;;;5018930;28;20033;-84
2022/12/21 11:16:37;;;;;;;16.00;8.88;;;;;;;;;;5043810;28;20527;-83
2022/12/21 11:19:03;;;;;;;18.88;8.57;;;;;;;;;;5034330;28;20067;-82
2022/12/21 11:21:35;;;;;;;18.23;8.63;;;;;;;;;;5038801;28;20033;-81
2022/12/21 11:24:15;;;;;;;15.73;7.75;;;;;;;;;;5055961;28;20033;-80
2022/12/21 11:26:42;;;;;;;15.50;8.18;;;;;;;;;;5041440;28;20036;-81
2022/12/21 11:29:13;;;;;;;17.50;8.85;;;;;;;;;;5034334;28;20078;-82
2022/12/21 11:31:38;;;;;;;14.95;7.78;;;;;;;;;;5039001;28;20500;-82
2022/12/21 11:34:04;;;;;;;14.82;7.97;;;;;;;;;;5059013;28;20032;-81
2022/12/21 11:36:29;;;;;;;16.02;7.72;;;;;;;;;;5046484;28;20043;-83
2022/12/21 11:38:55;;;;;;;17.85;9.45;;;;;;;;;;5058914;28;20112;-81
2022/12/21 11:41:27;;;;;;;16.23;7.65;;;;;;;;;;5048435;28;20488;-81
2022/12/21 11:43:53;;;;;;;14.82;8.13;;;;;;;;;;5034400;28;20151;-81
2022/12/21 11:46:18;;;;;;;15.02;7.97;;;;;;;;;;5052907;28;20111;-81
2022/12/21 11:48:50;;;;;;;18.05;9.27;;;;;;;;;;5054378;28;20044;-81
2022/12/21 11:51:34;;;;;;;16.58;9.73;;;;;;;;;;5035353;28;20187;-81
2022/12/21 11:54:04;;;;;;;21.80;10.75;;;;;;;;;;5032933;28;20120;-80
2022/12/21 11:56:30;;;;;;;19.98;9.05;;;;;;;;;;5028466;28;20056;-81
2022/12/21 11:59:04;;;;;;;16.20;8.75;;;;;;;;;;5050619;28;20441;-81
2022/12/21 12:01:33;;;;;;;16.48;8.63;;;;;;;;;;5050927;28;20057;-81
2022/12/21 12:03:58;;;;;;;20.10;9.98;;;;;;;;;;5040218;28;20025;-83
2022/12/21 12:06:27;;;;;;;19.50;11.15;;;;;;;;;;5055129;28;20028;-82
2022/12/21 12:08:58;;;;;;;21.80;9.85;;;;;;;;;;5050688;28;20037;-81
2022/12/21 12:11:42;;;;;;;20.50;10.60;;;;;;;;;;5050470;28;20044;-81
2022/12/21 12:14:08;;;;;;;18.23;9.10;;;;;;;;;;5050339;28;20033;-81
2022/12/21 12:16:34;;;;;;;18.55;10.00;;;;;;;;;;5047693;28;20095;-81
2022/12/21 12:19:03;;;;;;;18.88;10.65;;;;;;;;;;5045814;28;20059;-80
2022/12/21 12:21:48;;;;;;;21.20;10.93;;;;;;;;;;5053154;28;20472;-80
2022/12/21 12:24:21;;;;;;;20.35;11.30;;;;;;;;;;5030808;28;20052;-80
2022/12/21 12:26:53;;;;;;;23.35;11.10;;;;;;;;;;5052452;28;20041;-80
2022/12/21 12:29:22;;;;;;;20.85;10.75;;;;;;;;;;5051056;28;20090;-81
2022/12/21 12:32:00;;;;;;;25.08;11.73;;;;;;;;;;5045347;28;20024;-81
2022/12/21 12:34:34;;;;;;;22.13;11.40;;;;;;;;;;5050459;28;20032;-81
2022/12/21 12:37:04;;;;;;;27.23;13.25;;;;;;;;;;5032003;28;20500;-80
2022/12/21 12:39:36;;;;;;;21.15;11.70;;;;;;;;;;5050460;28;20100;-83
2022/12/21 12:42:05;;;;;;;21.15;11.20;;;;;;;;;;5033028;28;20037;-82
2022/12/21 12:44:36;;;;;;;20.17;11.57;;;;;;;;;;5049998;28;20427;-81
2022/12/21 12:47:02;;;;;;;24.90;12.27;;;;;;;;;;5051220;28;20033;-80
2022/12/21 12:49:30;;;;;;;18.73;11.00;;;;;;;;;;5062095;28;20032;-81
2022/12/21 12:52:04;;;;;;;15.98;9.93;;;;;;;;;;5073079;28;20028;-80
2022/12/21 12:54:36;;;;;;;18.63;10.15;;;;;;;;;;5043597;28;20040;-81
2022/12/21 12:57:17;;;;;;;21.00;9.77;;;;;;;;;;5029203;28;20102;-80
2022/12/21 12:59:52;;;;;;;17.60;9.23;;;;;;;;;;5049246;28;20031;-81
2022/12/21 13:02:32;;;;;;;16.23;9.18;;;;;;;;;;5036876;28;20059;-81
2022/12/21 13:05:16;;;;;;;15.77;9.48;;;;;;;;;;5060226;28;20032;-81
2022/12/21 13:07:49;;;;;;;17.25;9.27;;;;;;;;;;5061944;28;20045;-80
2022/12/21 13:10:47;;;;;;;17.60;8.63;;;;;;;;;;5032915;28;20036;-82
2022/12/21 13:13:15;;;;;;;17.63;8.55;;;;;;;;;;5009071;28;20171;-84
2022/12/21 13:15:53;;;;;;;14.05;9.68;;;;;;;;;;5053220;28;20451;-80
2022/12/21 13:18:20;;;;;;;15.75;8.98;;;;;;;;;;5036858;28;20033;-81
2022/12/21 13:20:46;;;;;;;18.45;9.70;;;;;;;;;;5037363;28;20097;-81
2022/12/21 13:23:15;;;;;;;15.60;9.25;;;;;;;;;;5057911;28;20036;-80
2022/12/21 13:25:55;;;;;;;20.30;9.50;;;;;;;;;;5045686;28;20062;-81
2022/12/21 13:28:25;;;;;;;15.40;8.85;;;;;;;;;;5039346;28;20036;-82
2022/12/21 13:30:51;;;;;;;15.23;8.55;;;;;;;;;;5020213;28;20044;-81
2022/12/21 13:33:16;;;;;;;19.10;10.55;;;;;;;;;;5039584;28;20029;-81
2022/12/21 13:35:48;;;;;;;18.02;10.98;;;;;;;;;;5055854;28;20039;-81
2022/12/21 13:38:15;;;;;;;16.48;8.52;;;;;;;;;;5040110;28;20143;-83
2022/12/21 13:40:45;;;;;;;17.15;8.65;;;;;;;;;;5048050;28;20823;-80
2022/12/21 13:43:17;;;;;;;16.13;8.98;;;;;;;;;;5049472;28;20037;-80
2022/12/21 13:45:47;;;;;;;17.20;9.00;;;;;;;;;;5038874;28;20025;-79
2022/12/21 13:48:17;;;;;;;18.00;8.80;;;;;;;;;;5038323;28;20135;-81
2022/12/21 13:50:48;;;;;;;14.98;8.30;;;;;;;;;;5058264;28;20033;-81
2022/12/21 13:53:20;;;;;;;15.23;9.02;;;;;;;;;;5047014;28;20032;-81
2022/12/21 13:55:57;;;;;;;14.98;8.80;;;;;;;;;;5058857;28;20422;-81
2022/12/21 13:58:38;;;;;;;15.82;8.63;;;;;;;;;;5038196;28;20405;-80
2022/12/21 14:01:28;;;;;;;16.52;8.48;;;;;;;;;;5054036;28;20029;-82
2022/12/21 14:04:00;;;;;;;14.23;7.85;;;;;;;;;;5057213;28;20067;-81
2022/12/21 14:07:01;;;;;;;15.93;8.60;;;;;;;;;;5036963;28;20044;-82
2022/12/21 14:09:29;;;;;;;16.15;8.07;;;;;;;;;;5008655;28;20053;-81
2022/12/21 14:11:58;;;;;;;14.32;7.90;;;;;;;;;;5049723;28;20116;-81
2022/12/21 14:14:27;;;;;;;13.93;8.15;;;;;;;;;;5039228;28;20033;-80
2022/12/21 14:17:22;;;;;;;15.60;8.85;;;;;;;;;;5035781;28;20052;-80
2022/12/21 14:19:51;;;;;;;15.93;8.77;;;;;;;;;;5034621;28;20059;-81
2022/12/21 14:22:29;;;;;;;15.82;8.00;;;;;;;;;;5034252;28;20115;-81
2022/12/21 14:24:58;;;;;;;15.60;8.70;;;;;;;;;;5054364;28;20095;-80
2022/12/21 14:27:24;;;;;;;15.07;8.40;;;;;;;;;;5038110;28;20036;-83
2022/12/21 14:29:49;;;;;;;14.35;8.65;;;;;;;;;;5054208;28;20039;-81
2022/12/21 14:32:18;;;;;;;14.73;8.85;;;;;;;;;;5034194;28;20484;-81
2022/12/21 14:34:44;;;;;;;15.48;8.05;;;;;;;;;;5043314;28;20101;-82
2022/12/21 14:37:09;;;;;;;15.77;8.88;;;;;;;;;;5056285;28;20453;-81
2022/12/21 14:39:44;;;;;;;21.92;12.38;;;;;;;;;;5060488;28;20484;-80
2022/12/21 14:42:28;;;;;;;16.88;9.45;;;;;;;;;;5056312;28;20036;-81
2022/12/21 14:45:09;;;;;;;15.55;8.80;;;;;;;;;;5066189;28;20480;-81
2022/12/21 14:47:35;;;;;;;14.05;8.43;;;;;;;;;;5061644;28;20037;-81
2022/12/21 14:50:12;;;;;;;17.65;9.00;;;;;;;;;;5056823;28;20033;-82